Time;durP1;ratioP1;P1;durP2;ratioP2;P2;SDS_P1;SDS_P2;PMS_P1;PMS_P2;Temp;Humidity;BMP_temperature;BMP_pressure;BME280_temperature;BME280_humidity;BME280_pressure;Samples;Min_cycle;Max_cycle;Signal;HPM_P1;HPM_P2
2022/01/11 00:02:06;;;;;;;4.38;1.45;;;9.00;61.30;;;;;;4994259;28;20058;-68
2022/01/11 00:04:32;;;;;;;7.40;1.90;;;9.10;61.10;;;;;;4994218;28;20092;-70
2022/01/11 00:07:00;;;;;;;5.65;1.70;;;9.10;61.00;;;;;;4994185;28;20128;-69
2022/01/11 00:09:40;;;;;;;4.88;1.88;;;9.10;60.90;;;;;;4993873;28;20494;-72
2022/01/11 00:12:08;;;;;;;4.00;1.40;;;9.10;61.00;;;;;;4994112;28;20030;-67
2022/01/11 00:14:35;;;;;;;6.03;2.00;;;9.20;60.90;;;;;;4994044;28;20435;-71
2022/01/11 00:17:01;;;;;;;3.75;1.70;;;9.20;60.50;;;;;;4993915;28;20038;-69
2022/01/11 00:19:28;;;;;;;3.95;1.60;;;9.20;60.50;;;;;;4993235;28;20041;-68
2022/01/11 00:21:55;;;;;;;7.43;2.15;;;9.20;60.60;;;;;;4993882;28;20027;-70
2022/01/11 00:24:28;;;;;;;5.35;1.77;;;9.20;60.50;;;;;;4993992;28;20034;-67
2022/01/11 00:26:55;;;;;;;4.43;1.77;;;9.20;60.80;;;;;;4993756;28;20479;-70
2022/01/11 00:29:20;;;;;;;6.22;1.80;;;9.20;60.40;;;;;;4993759;28;20391;-68
2022/01/11 00:31:47;;;;;;;7.63;1.98;;;9.20;60.70;;;;;;4993748;28;20030;-69
2022/01/11 00:34:15;;;;;;;4.55;1.88;;;9.20;60.60;;;;;;4992390;28;20072;-69
2022/01/11 00:36:42;;;;;;;5.32;1.80;;;9.20;61.00;;;;;;5008501;28;20413;-68
2022/01/11 00:39:09;;;;;;;4.60;1.98;;;9.20;61.00;;;;;;4993850;28;20030;-65
2022/01/11 00:41:37;;;;;;;8.18;1.92;;;9.20;61.10;;;;;;4993685;28;20114;-70
2022/01/11 00:44:04;;;;;;;6.18;1.80;;;9.20;61.00;;;;;;4993681;28;20371;-68
2022/01/11 00:46:29;;;;;;;5.45;2.08;;;9.20;61.20;;;;;;4993769;28;20045;-68
2022/01/11 00:48:55;;;;;;;6.00;2.20;;;9.20;61.20;;;;;;4993344;28;20046;-73
2022/01/11 00:51:20;;;;;;;5.60;2.08;;;9.20;61.50;;;;;;4993511;28;20547;-71
2022/01/11 00:53:46;;;;;;;5.35;1.83;;;9.20;61.50;;;;;;4993359;28;20380;-70
2022/01/11 00:56:12;;;;;;;5.57;1.88;;;9.20;61.70;;;;;;4993249;28;20022;-69
2022/01/11 00:58:38;;;;;;;6.22;2.10;;;9.20;61.70;;;;;;4993177;28;20109;-69
2022/01/11 01:01:04;;;;;;;4.47;1.95;;;9.20;61.90;;;;;;4991908;28;20026;-69
2022/01/11 01:03:30;;;;;;;5.50;1.90;;;9.20;61.90;;;;;;4993186;28;20034;-67
2022/01/11 01:05:55;;;;;;;5.85;1.75;;;9.20;62.20;;;;;;4993204;28;20030;-71
2022/01/11 01:08:21;;;;;;;4.88;2.10;;;9.20;62.10;;;;;;4993143;28;20026;-68
2022/01/11 01:10:47;;;;;;;2.90;1.60;;;9.20;62.40;;;;;;4993069;28;20022;-69
2022/01/11 01:13:19;;;;;;;5.13;1.92;;;9.20;62.30;;;;;;4993125;28;20498;-72
2022/01/11 01:15:50;;;;;;;4.38;1.63;;;9.20;62.40;;;;;;4993180;28;20026;-69
2022/01/11 01:18:20;;;;;;;5.85;1.80;;;9.20;62.40;;;;;;4993177;28;20403;-70
2022/01/11 01:20:47;;;;;;;3.75;1.73;;;9.20;62.40;;;;;;4991712;28;20088;-70
2022/01/11 01:23:14;;;;;;;5.72;1.80;;;9.20;62.60;;;;;;4993118;28;20030;-71
2022/01/11 01:25:42;;;;;;;6.40;1.70;;;9.20;62.50;;;;;;4993188;28;20085;-72
2022/01/11 01:28:08;;;;;;;4.68;1.65;;;9.20;62.20;;;;;;4993070;28;20042;-70
2022/01/11 01:30:35;;;;;;;6.57;2.00;;;9.20;62.10;;;;;;4996315;28;20073;-69
2022/01/11 01:33:01;;;;;;;5.80;1.80;;;9.20;61.90;;;;;;4997129;28;20030;-73
2022/01/11 01:35:32;;;;;;;6.20;1.83;;;9.30;61.80;;;;;;4997125;28;20026;-71
2022/01/11 01:37:58;;;;;;;4.32;1.77;;;9.30;61.90;;;;;;4996735;28;20030;-66
2022/01/11 01:40:24;;;;;;;5.13;2.00;;;9.30;62.20;;;;;;4996999;28;20022;-67
2022/01/11 01:42:51;;;;;;;4.15;1.75;;;9.30;62.40;;;;;;4996764;28;20476;-68
2022/01/11 01:45:17;;;;;;;6.85;2.53;;;9.30;62.40;;;;;;4996697;28;20045;-70
2022/01/11 01:47:43;;;;;;;6.85;2.08;;;9.20;62.50;;;;;;4996646;28;20038;-71
2022/01/11 01:50:11;;;;;;;7.68;2.38;;;9.20;62.70;;;;;;4996741;28;20046;-67
2022/01/11 01:52:37;;;;;;;5.55;2.10;;;9.20;62.70;;;;;;4996710;28;20034;-73
2022/01/11 01:55:05;;;;;;;7.18;2.20;;;9.20;62.80;;;;;;4996625;28;20145;-70
2022/01/11 01:57:34;;;;;;;6.05;2.17;;;9.20;62.90;;;;;;4996452;28;20038;-68
2022/01/11 02:00:07;;;;;;;6.57;2.22;;;9.20;63.00;;;;;;4996590;28;20023;-68
2022/01/11 02:02:35;;;;;;;5.47;2.30;;;9.20;62.60;;;;;;4996596;28;20054;-73
2022/01/11 02:05:02;;;;;;;7.53;2.25;;;9.20;62.20;;;;;;4996468;28;20037;-71
2022/01/11 02:07:27;;;;;;;9.63;2.28;;;9.30;62.10;;;;;;4996297;28;20034;-67
2022/01/11 02:09:53;;;;;;;7.60;1.95;;;9.30;62.00;;;;;;4996387;28;20396;-69
2022/01/11 02:12:19;;;;;;;9.73;2.33;;;9.30;61.80;;;;;;4996432;28;20135;-72
2022/01/11 02:14:45;;;;;;;6.53;2.20;;;9.30;61.70;;;;;;4994984;28;20026;-69
2022/01/11 02:17:11;;;;;;;9.30;2.50;;;9.30;61.20;;;;;;4996022;28;20041;-69
2022/01/11 02:19:36;;;;;;;8.27;2.10;;;9.40;60.90;;;;;;4995984;28;20114;-70
2022/01/11 02:22:02;;;;;;;6.63;2.08;;;9.40;60.70;;;;;;4996128;28;20038;-71
2022/01/11 02:24:32;;;;;;;6.00;1.73;;;9.40;60.20;;;;;;4996009;28;20034;-69
2022/01/11 02:26:57;;;;;;;7.63;2.20;;;9.40;59.80;;;;;;4996168;28;20050;-68
2022/01/11 02:29:23;;;;;;;6.50;2.47;;;9.40;59.90;;;;;;4994665;28;20027;-71
2022/01/11 02:31:49;;;;;;;10.60;2.20;;;9.40;59.80;;;;;;4996015;28;20030;-70
2022/01/11 02:34:15;;;;;;;7.72;2.50;;;9.40;59.70;;;;;;4996116;28;20033;-65
2022/01/11 02:36:41;;;;;;;10.02;2.40;;;9.40;60.00;;;;;;4995875;28;20026;-67
2022/01/11 02:39:06;;;;;;;8.88;2.67;;;9.30;60.00;;;;;;4995779;28;20478;-68
2022/01/11 02:41:32;;;;;;;9.88;2.42;;;9.30;60.10;;;;;;4993771;28;20388;-67
2022/01/11 02:43:59;;;;;;;6.25;2.40;;;9.30;60.10;;;;;;4995669;28;20030;-68
2022/01/11 02:46:26;;;;;;;9.52;3.15;;;9.30;60.00;;;;;;4995752;28;20027;-66
2022/01/11 02:48:55;;;;;;;10.20;2.60;;;9.30;60.00;;;;;;4995467;28;20562;-66
2022/01/11 02:51:22;;;;;;;7.57;2.90;;;9.20;60.10;;;;;;4995604;28;20034;-66
2022/01/11 02:53:50;;;;;;;10.45;2.65;;;9.20;60.10;;;;;;4995528;28;20793;-67
2022/01/11 02:56:18;;;;;;;10.00;3.03;;;9.20;59.90;;;;;;4995518;28;20069;-66
2022/01/11 02:58:43;;;;;;;13.10;3.72;;;9.20;60.00;;;;;;4995412;28;20057;-67
2022/01/11 03:01:11;;;;;;;8.05;2.70;;;9.20;60.00;;;;;;4995360;28;20058;-65
2022/01/11 03:03:37;;;;;;;12.07;2.72;;;9.20;59.90;;;;;;4995496;28;20180;-66
2022/01/11 03:06:04;;;;;;;11.10;3.03;;;9.20;59.80;;;;;;4995241;28;20035;-65
2022/01/11 03:08:36;;;;;;;8.93;3.17;;;9.20;59.70;;;;;;4995232;28;20089;-73
2022/01/11 03:11:05;;;;;;;13.02;2.80;;;9.20;60.00;;;;;;4995428;28;20499;-72
2022/01/11 03:13:31;;;;;;;10.77;3.30;;;9.20;60.00;;;;;;4995275;28;20029;-69
2022/01/11 03:15:57;;;;;;;9.07;2.60;;;9.10;59.90;;;;;;4995268;28;20079;-67
2022/01/11 03:18:22;;;;;;;7.72;2.75;;;9.10;59.90;;;;;;4995188;28;20049;-65
2022/01/11 03:20:51;;;;;;;8.15;2.55;;;9.10;60.20;;;;;;4995009;28;20018;-68
2022/01/11 03:23:18;;;;;;;9.23;2.72;;;9.10;60.60;;;;;;4995004;28;20045;-66
2022/01/11 03:25:44;;;;;;;7.35;3.15;;;9.10;60.00;;;;;;4994886;28;20019;-67
2022/01/11 03:28:10;;;;;;;9.27;3.25;;;9.10;60.10;;;;;;4994642;28;20026;-68
2022/01/11 03:30:36;;;;;;;10.63;3.35;;;9.10;59.90;;;;;;4994694;28;20030;-65
2022/01/11 03:33:03;;;;;;;11.85;3.17;;;9.10;59.80;;;;;;4994804;28;20031;-67
2022/01/11 03:35:29;;;;;;;7.80;2.83;;;9.10;59.80;;;;;;4994745;28;20026;-65
2022/01/11 03:37:56;;;;;;;8.35;2.90;;;9.10;59.80;;;;;;4994606;28;20540;-66
2022/01/11 03:40:24;;;;;;;8.38;3.35;;;9.10;59.70;;;;;;4994618;28;20026;-67
2022/01/11 03:42:51;;;;;;;8.63;2.70;;;9.10;59.70;;;;;;4994624;28;20361;-67
2022/01/11 03:45:21;;;;;;;8.40;3.17;;;9.10;60.00;;;;;;4994644;28;20475;-67
2022/01/11 03:47:48;;;;;;;10.50;3.30;;;9.10;59.80;;;;;;4994244;28;20054;-68
2022/01/11 03:50:14;;;;;;;8.05;3.08;;;9.10;59.70;;;;;;4994371;28;20122;-66
2022/01/11 03:52:40;;;;;;;10.93;3.28;;;9.10;59.70;;;;;;5008628;28;20061;-69
2022/01/11 03:55:21;;;;;;;10.32;3.25;;;9.00;59.60;;;;;;4994218;28;20026;-68
2022/01/11 03:57:48;;;;;;;11.00;3.28;;;9.00;59.70;;;;;;4994118;28;20034;-67
2022/01/11 04:00:18;;;;;;;9.27;2.97;;;9.00;59.50;;;;;;4994192;28;20026;-68
2022/01/11 04:02:45;;;;;;;9.65;2.90;;;9.10;59.40;;;;;;4994105;28;20034;-65
2022/01/11 04:05:12;;;;;;;11.85;3.65;;;9.10;59.10;;;;;;4994172;28;20514;-66
2022/01/11 04:07:38;;;;;;;12.15;3.10;;;9.10;59.00;;;;;;4993959;28;20081;-65
2022/01/11 04:10:05;;;;;;;15.50;3.35;;;9.10;58.90;;;;;;4992836;28;20395;-65
2022/01/11 04:12:31;;;;;;;10.70;3.15;;;9.10;59.10;;;;;;4994079;28;20512;-66
2022/01/11 04:14:56;;;;;;;6.28;2.58;;;9.10;58.70;;;;;;4993957;28;20073;-66
2022/01/11 04:17:22;;;;;;;10.98;2.78;;;9.10;58.70;;;;;;4994036;28;20084;-65
2022/01/11 04:19:48;;;;;;;10.70;3.20;;;9.10;58.70;;;;;;4993871;28;20030;-65
2022/01/11 04:22:14;;;;;;;17.85;3.30;;;9.10;58.90;;;;;;4993901;28;20034;-65
2022/01/11 04:24:40;;;;;;;10.30;2.90;;;9.00;58.80;;;;;;4992591;28;20049;-66
2022/01/11 04:27:06;;;;;;;10.88;2.90;;;9.00;58.70;;;;;;4993843;28;20330;-66
2022/01/11 04:29:32;;;;;;;13.43;3.10;;;9.00;58.70;;;;;;4993684;28;20022;-66
2022/01/11 04:31:57;;;;;;;10.88;3.50;;;9.00;58.60;;;;;;4993539;28;20063;-66
2022/01/11 04:34:25;;;;;;;10.57;2.97;;;9.00;58.60;;;;;;4993596;28;20028;-66
2022/01/11 04:36:51;;;;;;;11.82;3.67;;;9.00;58.50;;;;;;4993620;28;20030;-69
2022/01/11 04:39:17;;;;;;;11.48;3.58;;;9.00;58.40;;;;;;4993583;28;20018;-71
2022/01/11 04:41:43;;;;;;;13.55;5.00;;;8.90;58.60;;;;;;4993423;28;20026;-71
2022/01/11 04:44:08;;;;;;;10.20;3.03;;;8.90;58.70;;;;;;4993342;28;20468;-71
2022/01/11 04:46:35;;;;;;;12.02;3.38;;;8.90;58.60;;;;;;4993272;28;20480;-71
2022/01/11 04:49:01;;;;;;;10.80;3.90;;;8.90;58.70;;;;;;4993154;28;20054;-70
2022/01/11 04:51:28;;;;;;;11.73;3.70;;;8.80;58.70;;;;;;4993392;28;20033;-71
2022/01/11 04:53:53;;;;;;;9.65;3.60;;;8.80;58.60;;;;;;4993314;28;20080;-68
2022/01/11 04:56:19;;;;;;;14.98;4.03;;;8.80;58.80;;;;;;4993323;28;20431;-70
2022/01/11 04:58:45;;;;;;;16.10;3.70;;;8.80;58.70;;;;;;4993320;28;20041;-72
2022/01/11 05:01:11;;;;;;;11.48;3.42;;;8.80;58.90;;;;;;4993467;28;20026;-69
2022/01/11 05:03:37;;;;;;;17.05;3.85;;;8.80;58.70;;;;;;4993435;28;20384;-72
2022/01/11 05:06:04;;;;;;;14.52;3.80;;;8.80;58.70;;;;;;4993318;28;20026;-68
2022/01/11 05:08:31;;;;;;;11.57;3.53;;;8.80;58.70;;;;;;4993182;28;20042;-70
2022/01/11 05:10:56;;;;;;;11.05;4.00;;;8.70;58.60;;;;;;4993204;28;20030;-71
2022/01/11 05:13:22;;;;;;;9.95;3.47;;;8.80;58.70;;;;;;4993263;28;20132;-67
2022/01/11 05:15:48;;;;;;;10.18;3.60;;;8.70;58.70;;;;;;4993272;28;20018;-69
2022/01/11 05:18:15;;;;;;;13.27;3.78;;;8.70;58.60;;;;;;4993250;28;20430;-71
2022/01/11 05:20:41;;;;;;;11.40;3.70;;;8.70;58.60;;;;;;5008119;28;20513;-70
2022/01/11 05:23:08;;;;;;;9.93;3.88;;;8.70;58.80;;;;;;4991981;28;20403;-71
2022/01/11 05:25:34;;;;;;;13.75;3.55;;;8.70;58.80;;;;;;4993068;28;20034;-70
2022/01/11 05:27:59;;;;;;;9.98;3.47;;;8.70;58.90;;;;;;4993133;28;20035;-71
2022/01/11 05:30:27;;;;;;;10.70;3.95;;;8.70;58.70;;;;;;4993119;28;20555;-72
2022/01/11 05:32:54;;;;;;;13.93;3.70;;;8.70;58.80;;;;;;4991913;28;20468;-71
2022/01/11 05:35:22;;;;;;;12.90;3.83;;;8.70;59.10;;;;;;4993121;28;20023;-71
2022/01/11 05:37:48;;;;;;;12.23;3.45;;;8.70;58.90;;;;;;4992955;28;20026;-73
2022/01/11 05:40:15;;;;;;;12.88;3.63;;;8.60;58.90;;;;;;4992932;28;20079;-69
2022/01/11 05:42:42;;;;;;;10.25;3.58;;;8.70;58.80;;;;;;4992857;28;20034;-71
2022/01/11 05:45:09;;;;;;;10.82;3.65;;;8.70;58.90;;;;;;4992891;28;20026;-71
2022/01/11 05:47:35;;;;;;;9.85;3.72;;;8.60;59.10;;;;;;4992798;28;20070;-72
2022/01/11 05:50:03;;;;;;;11.15;3.20;;;8.60;58.80;;;;;;4992773;28;20140;-68
2022/01/11 05:52:29;;;;;;;11.02;3.30;;;8.60;58.70;;;;;;4992809;28;20387;-72
2022/01/11 05:54:55;;;;;;;9.93;3.63;;;8.60;58.90;;;;;;4991530;28;20027;-70
2022/01/11 05:57:21;;;;;;;14.30;4.78;;;8.60;58.90;;;;;;5008183;28;20096;-69
2022/01/11 05:59:46;;;;;;;12.40;3.97;;;8.60;58.80;;;;;;4992807;28;20050;-71
2022/01/11 06:02:12;;;;;;;12.30;4.00;;;8.60;58.60;;;;;;4992819;28;20380;-73
2022/01/11 06:04:38;;;;;;;13.27;3.70;;;8.60;58.50;;;;;;5007765;28;20093;-71
2022/01/11 06:07:03;;;;;;;13.30;4.05;;;8.60;58.40;;;;;;4989690;28;20035;-69
2022/01/11 06:09:29;;;;;;;9.80;3.10;;;8.60;58.40;;;;;;4992816;28;20019;-69
2022/01/11 06:11:56;;;;;;;11.77;4.20;;;8.60;58.20;;;;;;4993233;28;20032;-68
2022/01/11 06:14:22;;;;;;;12.02;3.10;;;8.60;58.20;;;;;;4974750;28;20030;-66
2022/01/11 06:16:48;;;;;;;11.88;3.92;;;8.60;58.20;;;;;;4975054;28;20429;-69
2022/01/11 06:19:13;;;;;;;10.93;3.83;;;8.70;58.40;;;;;;4991751;28;20065;-68
2022/01/11 06:21:39;;;;;;;11.30;4.30;;;8.60;58.10;;;;;;4977107;28;20421;-68
2022/01/11 06:24:05;;;;;;;11.05;3.65;;;8.60;58.40;;;;;;4976872;28;20472;-73
2022/01/11 06:26:31;;;;;;;15.52;3.65;;;8.60;58.30;;;;;;4976976;28;20035;-68
2022/01/11 06:28:57;;;;;;;12.15;4.00;;;8.70;58.60;;;;;;4976544;28;20088;-68
2022/01/11 06:31:23;;;;;;;11.15;3.45;;;8.70;58.60;;;;;;4981771;28;20062;-68
2022/01/11 06:33:49;;;;;;;11.63;4.40;;;8.80;58.90;;;;;;4976899;28;20031;-69
2022/01/11 06:36:15;;;;;;;8.73;3.33;;;8.90;58.20;;;;;;4975710;28;20499;-68
2022/01/11 06:38:42;;;;;;;14.05;3.97;;;8.90;58.30;;;;;;4976670;28;20027;-67
2022/01/11 06:41:09;;;;;;;13.18;4.10;;;8.90;58.20;;;;;;4976489;28;20030;-67
2022/01/11 06:43:35;;;;;;;13.70;4.00;;;8.90;58.00;;;;;;4976364;28;20034;-66
2022/01/11 06:46:01;;;;;;;11.85;3.90;;;9.00;58.30;;;;;;4976377;28;20029;-67
2022/01/11 06:48:28;;;;;;;14.00;3.88;;;9.00;58.20;;;;;;4976001;28;20039;-67
2022/01/11 06:50:54;;;;;;;11.07;4.47;;;9.00;58.10;;;;;;4976208;28;20086;-67
2022/01/11 06:53:20;;;;;;;14.15;4.20;;;9.00;58.00;;;;;;4976196;28;20433;-68
2022/01/11 06:55:46;;;;;;;13.18;4.57;;;9.00;57.90;;;;;;4980560;28;20093;-67
2022/01/11 06:58:11;;;;;;;10.45;3.80;;;9.10;57.70;;;;;;4991509;28;20027;-67
2022/01/11 07:00:37;;;;;;;11.80;4.35;;;9.10;57.70;;;;;;4995656;28;20030;-68
2022/01/11 07:03:03;;;;;;;13.48;4.15;;;9.10;57.90;;;;;;4992197;28;20111;-67
2022/01/11 07:05:28;;;;;;;12.68;4.55;;;9.10;57.70;;;;;;4977202;28;20038;-67
2022/01/11 07:07:54;;;;;;;14.48;4.57;;;9.20;58.00;;;;;;4975860;28;20035;-67
2022/01/11 07:10:20;;;;;;;15.25;4.57;;;9.20;57.70;;;;;;4976106;28;20062;-68
2022/01/11 07:12:46;;;;;;;13.57;4.18;;;9.20;57.70;;;;;;4975845;28;20456;-69
2022/01/11 07:15:12;;;;;;;13.15;3.88;;;9.20;57.30;;;;;;4975789;28;20030;-66
2022/01/11 07:17:38;;;;;;;13.73;4.30;;;9.20;57.30;;;;;;4975745;28;20460;-67
2022/01/11 07:20:05;;;;;;;15.30;4.47;;;9.20;57.30;;;;;;4975504;28;20101;-66
2022/01/11 07:22:31;;;;;;;10.88;3.83;;;9.20;57.60;;;;;;4974078;28;20034;-68
2022/01/11 07:24:57;;;;;;;7.50;3.70;;;9.20;57.40;;;;;;4975442;28;20026;-67
2022/01/11 07:27:23;;;;;;;11.05;4.85;;;9.20;57.40;;;;;;4975188;28;20057;-66
2022/01/11 07:29:49;;;;;;;13.55;4.10;;;9.30;57.50;;;;;;4974282;28;20444;-66
2022/01/11 07:32:14;;;;;;;14.75;4.10;;;9.30;57.30;;;;;;4975438;28;20038;-67
2022/01/11 07:34:40;;;;;;;12.40;4.15;;;9.30;57.50;;;;;;4975400;28;20384;-68
2022/01/11 07:37:06;;;;;;;10.68;4.32;;;9.30;57.50;;;;;;4975368;28;20033;-66
2022/01/11 07:39:32;;;;;;;11.40;3.80;;;9.30;57.30;;;;;;4975770;28;20026;-67
2022/01/11 07:41:58;;;;;;;9.93;4.05;;;9.40;57.40;;;;;;4975411;28;20050;-67
2022/01/11 07:44:25;;;;;;;12.88;4.10;;;9.40;57.50;;;;;;4975171;28;20023;-67
2022/01/11 07:46:52;;;;;;;17.42;4.18;;;9.40;57.30;;;;;;4974881;28;20035;-68
2022/01/11 07:49:19;;;;;;;16.10;4.47;;;9.50;57.60;;;;;;4974742;28;20543;-69
2022/01/11 07:51:45;;;;;;;14.75;4.50;;;9.60;57.30;;;;;;4975228;28;20026;-68
2022/01/11 07:54:11;;;;;;;11.07;4.53;;;9.60;57.30;;;;;;4975348;28;20106;-68
2022/01/11 07:56:37;;;;;;;14.70;4.70;;;9.70;57.20;;;;;;4975113;28;20065;-67
2022/01/11 07:59:03;;;;;;;15.02;4.78;;;9.70;57.10;;;;;;4973528;28;20065;-67
2022/01/11 08:01:29;;;;;;;14.90;5.47;;;9.70;57.10;;;;;;4973717;28;20098;-66
2022/01/11 08:03:55;;;;;;;12.25;4.22;;;9.80;57.10;;;;;;4974750;28;20077;-68
2022/01/11 08:06:21;;;;;;;12.70;4.45;;;9.80;56.90;;;;;;4974909;28;20030;-66
2022/01/11 08:08:46;;;;;;;11.60;4.47;;;9.80;56.80;;;;;;4974578;28;20030;-68
2022/01/11 08:11:12;;;;;;;12.00;4.10;;;9.90;56.50;;;;;;4974799;28;20022;-69
2022/01/11 08:13:38;;;;;;;11.35;4.53;;;10.00;55.50;;;;;;4989849;28;20035;-67
2022/01/11 08:16:04;;;;;;;16.38;3.88;;;10.10;55.40;;;;;;4974905;28;20097;-66
2022/01/11 08:18:30;;;;;;;11.48;3.90;;;10.10;55.10;;;;;;4973078;28;20487;-67
2022/01/11 08:20:56;;;;;;;10.63;4.78;;;10.20;54.90;;;;;;4974471;28;20030;-67
2022/01/11 08:23:22;;;;;;;12.27;4.70;;;10.30;54.70;;;;;;4974130;28;20026;-67
2022/01/11 08:25:47;;;;;;;10.57;4.07;;;10.30;54.70;;;;;;4974449;28;20109;-70
2022/01/11 08:28:13;;;;;;;10.45;4.20;;;10.40;54.50;;;;;;4973343;28;20043;-67
2022/01/11 08:30:40;;;;;;;11.98;3.85;;;10.50;54.30;;;;;;4974635;28;20165;-69
2022/01/11 08:33:06;;;;;;;16.08;4.43;;;10.50;53.90;;;;;;4974771;28;20027;-68
2022/01/11 08:35:33;;;;;;;14.32;4.40;;;10.60;53.90;;;;;;4974506;28;20094;-69
2022/01/11 08:37:59;;;;;;;14.65;4.82;;;10.70;54.00;;;;;;4974298;28;20457;-66
2022/01/11 08:40:25;;;;;;;13.88;4.57;;;10.70;53.60;;;;;;4973818;28;20030;-68
2022/01/11 08:42:52;;;;;;;15.07;4.28;;;10.70;53.20;;;;;;4974600;28;20056;-71
2022/01/11 08:45:18;;;;;;;13.45;4.93;;;10.80;53.40;;;;;;4974262;28;20038;-67
2022/01/11 08:47:44;;;;;;;13.20;5.10;;;10.80;53.60;;;;;;4973547;28;20043;-69
2022/01/11 08:50:11;;;;;;;14.80;5.60;;;10.90;53.60;;;;;;4973910;28;20034;-67
2022/01/11 08:52:39;;;;;;;15.13;4.70;;;10.90;53.30;;;;;;4974181;28;20027;-66
2022/01/11 08:55:07;;;;;;;10.60;4.18;;;10.90;53.20;;;;;;4973743;28;20027;-69
2022/01/11 08:57:33;;;;;;;10.68;4.10;;;11.00;53.30;;;;;;4973977;28;20031;-71
2022/01/11 09:00:03;;;;;;;11.30;4.47;;;11.00;53.30;;;;;;4989325;28;20385;-73
2022/01/11 09:02:32;;;;;;;10.60;4.20;;;11.00;53.40;;;;;;4973918;28;20109;-69
2022/01/11 09:04:58;;;;;;;12.45;5.35;;;11.00;53.30;;;;;;4972642;28;20105;-67
2022/01/11 09:07:23;;;;;;;10.77;4.50;;;11.00;53.20;;;;;;4988859;28;20070;-66
2022/01/11 09:09:49;;;;;;;14.27;4.75;;;11.00;53.30;;;;;;4973981;28;20417;-67
2022/01/11 09:12:15;;;;;;;16.48;4.50;;;11.00;53.40;;;;;;4973782;28;20038;-67
2022/01/11 09:14:42;;;;;;;15.23;4.70;;;11.00;53.10;;;;;;4973550;28;20054;-69
2022/01/11 09:17:08;;;;;;;16.45;4.32;;;11.00;53.20;;;;;;4973654;28;20153;-66
2022/01/11 09:19:34;;;;;;;11.52;4.45;;;11.00;53.40;;;;;;4972288;28;20507;-68
2022/01/11 09:22:01;;;;;;;13.93;4.72;;;10.90;53.40;;;;;;4973602;28;20469;-68
2022/01/11 09:24:29;;;;;;;11.35;4.25;;;10.90;53.40;;;;;;4973060;28;20031;-68
2022/01/11 09:26:59;;;;;;;15.40;4.97;;;11.00;53.60;;;;;;4972357;28;20453;-67
2022/01/11 09:29:26;;;;;;;17.15;7.43;;;11.00;53.60;;;;;;4973341;28;20034;-69
2022/01/11 09:31:55;;;;;;;10.77;3.97;;;11.00;53.50;;;;;;4973824;28;20037;-69
2022/01/11 09:34:21;;;;;;;17.38;5.72;;;11.10;53.40;;;;;;4973426;28;20018;-70
2022/01/11 09:36:47;;;;;;;14.02;4.32;;;11.10;53.10;;;;;;4973520;28;20031;-70
2022/01/11 09:39:14;;;;;;;10.65;4.53;;;11.20;53.10;;;;;;4973716;28;20450;-69
2022/01/11 09:41:40;;;;;;;14.93;4.70;;;11.20;52.90;;;;;;4973715;28;20023;-69
2022/01/11 09:44:07;;;;;;;11.82;4.78;;;11.20;52.70;;;;;;4973311;28;20030;-67
2022/01/11 09:46:34;;;;;;;17.08;4.50;;;11.30;52.60;;;;;;4973247;28;20026;-70
2022/01/11 09:49:00;;;;;;;9.68;4.00;;;11.30;52.30;;;;;;4973327;28;20043;-69
2022/01/11 09:51:26;;;;;;;13.27;4.25;;;11.30;52.30;;;;;;4975031;28;20034;-72
2022/01/11 09:53:53;;;;;;;12.55;4.60;;;11.30;51.90;;;;;;4977453;28;20432;-70
2022/01/11 09:56:18;;;;;;;12.40;4.57;;;11.30;52.00;;;;;;4977113;28;20039;-72
2022/01/11 09:58:45;;;;;;;10.68;4.47;;;11.40;52.00;;;;;;4977118;28;20030;-69
2022/01/11 10:01:13;;;;;;;11.38;4.75;;;11.50;52.30;;;;;;4976965;28;20059;-69
2022/01/11 10:03:58;;;;;;;13.45;5.47;;;11.50;52.20;;;;;;4975707;28;20038;-69
2022/01/11 10:06:25;;;;;;;13.32;5.00;;;11.60;52.10;;;;;;4976771;28;20133;-70
2022/01/11 10:09:06;;;;;;;13.57;4.72;;;11.60;52.00;;;;;;4976538;28;20108;-71
2022/01/11 10:11:42;;;;;;;8.63;4.18;;;11.60;51.90;;;;;;4976602;28;20503;-69
2022/01/11 10:14:30;;;;;;;13.60;4.95;;;11.60;51.80;;;;;;4976792;28;20031;-67
2022/01/11 10:17:24;;;;;;;15.18;4.97;;;11.70;52.10;;;;;;4976640;28;20039;-69
2022/01/11 10:20:02;;;;;;;;;;;11.70;52.00;;;;;;4976860;28;20033;-69
2022/01/11 10:22:30;;;;;;;10.35;4.90;;;11.70;51.60;;;;;;4976498;28;19906;-69
2022/01/11 10:24:57;;;;;;;15.40;4.78;;;11.70;52.00;;;;;;4976432;28;20038;-68
2022/01/11 10:27:32;;;;;;;11.38;4.70;;;11.80;52.40;;;;;;4976406;28;20469;-69
2022/01/11 10:29:59;;;;;;;9.68;4.55;;;11.80;52.00;;;;;;4976096;28;20035;-69
2022/01/11 10:32:27;;;;;;;11.20;5.10;;;11.80;52.20;;;;;;4976201;28;20484;-69
2022/01/11 10:34:57;;;;;;;12.77;5.15;;;11.90;52.40;;;;;;4976246;28;20027;-70
2022/01/11 10:37:32;;;;;;;13.50;4.72;;;11.90;52.50;;;;;;4976381;28;20031;-72
2022/01/11 10:40:07;;;;;;;10.70;4.78;;;12.00;52.50;;;;;;4976358;28;20493;-67
2022/01/11 10:42:34;;;;;;;15.00;4.93;;;12.00;52.20;;;;;;4976370;28;20031;-70
2022/01/11 10:45:04;;;;;;;13.07;4.88;;;12.10;52.10;;;;;;4976280;28;20389;-69
2022/01/11 10:47:43;;;;;;;13.65;4.80;;;12.10;52.00;;;;;;4976095;28;20113;-71
2022/01/11 10:50:28;;;;;;;13.10;5.45;;;12.20;51.90;;;;;;4974563;28;20062;-69
2022/01/11 10:52:56;;;;;;;11.90;4.78;;;12.20;51.60;;;;;;4976071;28;20023;-68
2022/01/11 10:55:23;;;;;;;11.48;4.22;;;12.30;51.70;;;;;;4976252;28;20368;-68
2022/01/11 10:57:55;;;;;;;11.20;5.03;;;12.30;51.40;;;;;;4975863;28;20092;-68
2022/01/11 11:00:34;;;;;;;12.27;4.60;;;12.30;51.70;;;;;;4990750;28;20031;-68
2022/01/11 11:03:04;;;;;;;18.10;5.60;;;12.40;51.20;;;;;;4975166;28;20023;-68
2022/01/11 11:05:35;;;;;;;12.40;4.63;;;12.50;50.20;;;;;;4975866;28;20055;-67
2022/01/11 11:08:16;;;;;;;13.25;4.57;;;12.50;50.40;;;;;;4975686;28;20381;-68
2022/01/11 11:10:56;;;;;;;11.98;4.82;;;12.60;50.50;;;;;;4975490;28;20023;-70
2022/01/11 11:13:26;;;;;;;10.90;4.60;;;12.60;50.40;;;;;;4974311;28;20038;-68
2022/01/11 11:15:57;;;;;;;9.65;4.47;;;12.70;50.10;;;;;;4975622;28;20537;-68
2022/01/11 11:18:30;;;;;;;10.38;4.53;;;12.70;50.20;;;;;;4975481;28;20101;-67
2022/01/11 11:21:10;;;;;;;9.98;4.35;;;12.80;50.60;;;;;;4975600;28;20015;-67
2022/01/11 11:23:35;;;;;;;11.40;4.50;;;12.80;49.20;;;;;;4975342;28;20035;-68
2022/01/11 11:26:01;;;;;;;10.05;4.05;;;12.80;49.50;;;;;;4975731;28;20346;-69
2022/01/11 11:28:29;;;;;;;10.23;4.57;;;12.70;49.50;;;;;;4975054;28;20491;-67
2022/01/11 11:30:56;;;;;;;8.63;4.55;;;12.70;49.30;;;;;;4974045;28;20057;-66
2022/01/11 11:33:22;;;;;;;12.63;4.68;;;12.70;49.40;;;;;;4974055;28;20057;-68
2022/01/11 11:35:49;;;;;;;16.92;4.93;;;12.70;49.60;;;;;;4975260;28;20023;-67
2022/01/11 11:38:17;;;;;;;12.23;4.28;;;12.60;49.30;;;;;;4973746;28;20030;-69
2022/01/11 11:40:48;;;;;;;11.23;4.55;;;12.60;49.10;;;;;;4975079;28;20023;-67
2022/01/11 11:43:14;;;;;;;12.07;4.78;;;12.70;48.60;;;;;;4975193;28;20165;-67
2022/01/11 11:45:41;;;;;;;14.63;4.20;;;12.70;48.50;;;;;;4975174;28;20062;-68
2022/01/11 11:48:12;;;;;;;8.38;4.15;;;12.80;48.30;;;;;;4975379;28;20126;-67
2022/01/11 11:50:52;;;;;;;10.77;4.10;;;12.80;47.50;;;;;;4974808;28;20516;-68
2022/01/11 11:53:40;;;;;;;9.00;3.78;;;12.90;48.70;;;;;;4974985;28;20027;-68
2022/01/11 11:56:21;;;;;;;7.03;3.75;;;13.00;46.80;;;;;;4975080;28;20078;-71
2022/01/11 11:58:56;;;;;;;8.60;4.07;;;13.00;46.70;;;;;;4974508;28;20485;-69
2022/01/11 12:01:47;;;;;;;13.32;4.55;;;13.00;47.00;;;;;;4974644;28;20022;-67
2022/01/11 12:04:25;;;;;;;9.30;3.83;;;13.10;48.90;;;;;;4974832;28;20523;-67
2022/01/11 12:06:52;;;;;;;11.70;4.63;;;13.00;47.50;;;;;;4974832;28;20026;-68
2022/01/11 12:09:18;;;;;;;11.38;4.63;;;13.00;47.80;;;;;;4975076;28;20042;-68
2022/01/11 12:11:49;;;;;;;13.75;5.03;;;12.90;48.00;;;;;;4974603;28;20105;-69
2022/01/11 12:14:42;;;;;;;10.57;4.85;;;12.90;47.90;;;;;;4973934;28;20046;-67
2022/01/11 12:17:22;;;;;;;12.60;4.28;;;12.90;47.70;;;;;;4975016;28;20553;-68
2022/01/11 12:19:53;;;;;;;11.10;4.65;;;12.90;49.10;;;;;;4974297;28;20090;-68
2022/01/11 12:22:27;;;;;;;9.30;4.68;;;12.90;47.70;;;;;;4974364;28;20095;-69
2022/01/11 12:24:55;;;;;;;10.10;4.93;;;12.90;47.90;;;;;;4974687;28;20056;-66
2022/01/11 12:27:23;;;;;;;11.50;4.75;;;12.90;47.70;;;;;;4974288;28;20034;-69
2022/01/11 12:29:58;;;;;;;12.25;4.70;;;12.90;48.50;;;;;;4974257;28;20046;-68
2022/01/11 12:32:26;;;;;;;12.45;4.93;;;13.00;49.50;;;;;;4974313;28;20027;-68
2022/01/11 12:34:59;;;;;;;9.35;4.45;;;13.00;47.80;;;;;;4974297;28;20115;-68
2022/01/11 12:37:30;;;;;;;10.25;4.75;;;13.00;47.60;;;;;;4974565;28;20082;-69
2022/01/11 12:40:00;;;;;;;13.80;4.75;;;12.90;47.30;;;;;;4974357;28;20023;-68
2022/01/11 12:42:27;;;;;;;12.88;5.15;;;12.90;47.80;;;;;;4974292;28;20023;-66
2022/01/11 12:47:22;;;;;;;11.10;4.60;;;12.90;47.50;;;;;;4974294;28;20404;-67
2022/01/11 12:50:15;;;;;;;11.55;5.00;;;12.90;47.50;;;;;;4973898;28;20059;-67
2022/01/11 12:52:42;;;;;;;11.15;4.53;;;12.90;47.70;;;;;;4975417;28;20081;-68
2022/01/11 12:55:09;;;;;;;9.93;4.65;;;12.80;47.30;;;;;;4974196;28;20484;-70